Time;durP1;ratioP1;P1;durP2;ratioP2;P2;SDS_P1;SDS_P2;PMS_P1;PMS_P2;Temp;Humidity;BMP_temperature;BMP_pressure;BME280_temperature;BME280_humidity;BME280_pressure;Samples;Min_cycle;Max_cycle;Signal;HPM_P1;HPM_P2
2021/05/23 00:00:39;;;;;;;7.68;2.50;;;11.70;90.40;;;;;;5094332;28;20030;-77
2021/05/23 00:03:10;;;;;;;4.68;2.22;;;11.70;90.40;;;;;;5087137;28;20012;-77
2021/05/23 00:05:40;;;;;;;6.50;2.38;;;11.70;90.40;;;;;;5056093;28;22101;-78
2021/05/23 00:08:18;;;;;;;8.82;2.33;;;11.70;90.50;;;;;;5089700;28;20046;-78
2021/05/23 00:10:58;;;;;;;8.57;2.78;;;11.70;90.50;;;;;;5092802;28;20454;-78
2021/05/23 00:13:30;;;;;;;4.22;2.65;;;11.60;90.50;;;;;;5091265;28;20031;-77
2021/05/23 00:16:02;;;;;;;7.68;2.42;;;11.70;90.50;;;;;;5087467;28;20111;-78
2021/05/23 00:18:31;;;;;;;5.95;2.72;;;11.60;90.50;;;;;;5105500;28;20036;-78
2021/05/23 00:20:57;;;;;;;9.13;2.88;;;11.60;90.50;;;;;;5067869;28;20477;-78
2021/05/23 00:23:22;;;;;;;4.55;2.15;;;11.60;90.50;;;;;;5092678;28;20089;-78
2021/05/23 00:25:48;;;;;;;6.63;2.65;;;11.60;90.80;;;;;;5085007;28;20028;-78
2021/05/23 00:28:14;;;;;;;4.03;2.50;;;11.60;90.50;;;;;;5068526;28;20115;-78
2021/05/23 00:30:40;;;;;;;6.70;2.58;;;11.60;90.60;;;;;;5091960;28;20108;-78
2021/05/23 00:33:07;;;;;;;6.32;2.50;;;11.60;90.60;;;;;;5092387;28;20040;-78
2021/05/23 00:35:34;;;;;;;3.58;2.10;;;11.60;90.60;;;;;;5088788;28;20031;-78
2021/05/23 00:37:59;;;;;;;4.53;2.42;;;11.50;90.60;;;;;;5090539;28;20085;-78
2021/05/23 00:40:25;;;;;;;6.45;2.70;;;11.60;90.70;;;;;;5092234;28;20119;-78
2021/05/23 00:42:51;;;;;;;8.52;2.20;;;11.50;90.70;;;;;;5075163;28;20102;-78
2021/05/23 00:45:18;;;;;;;6.00;2.40;;;11.50;90.70;;;;;;5060325;28;20381;-78
2021/05/23 00:47:46;;;;;;;6.55;2.58;;;11.50;90.70;;;;;;5091799;28;20051;-78
2021/05/23 00:50:19;;;;;;;5.28;2.17;;;11.50;90.70;;;;;;5091060;28;20028;-78
2021/05/23 00:52:45;;;;;;;6.10;2.33;;;11.50;90.70;;;;;;5087971;28;20039;-77
2021/05/23 00:55:11;;;;;;;4.88;2.20;;;11.50;90.70;;;;;;5066970;28;20040;-77
2021/05/23 00:57:37;;;;;;;4.85;2.30;;;11.40;90.70;;;;;;5088489;28;20416;-78
2021/05/23 01:00:06;;;;;;;6.18;3.00;;;11.50;90.80;;;;;;5088107;28;20038;-77
2021/05/23 01:02:49;;;;;;;6.15;2.53;;;11.40;90.80;;;;;;5068584;28;20036;-79
2021/05/23 01:05:19;;;;;;;4.65;2.20;;;11.50;90.80;;;;;;5087103;28;20477;-78
2021/05/23 01:07:45;;;;;;;5.82;2.40;;;11.50;90.80;;;;;;5085879;28;20116;-78
2021/05/23 01:10:15;;;;;;;6.03;3.03;;;11.50;90.80;;;;;;5085749;28;20039;-78
2021/05/23 01:12:52;;;;;;;5.45;2.70;;;11.50;90.80;;;;;;5083539;28;20020;-78
2021/05/23 01:15:33;;;;;;;6.55;2.95;;;11.50;90.90;;;;;;5084567;28;20017;-78
2021/05/23 01:18:02;;;;;;;5.43;3.20;;;11.50;90.90;;;;;;5083707;28;20518;-78
2021/05/23 01:20:41;;;;;;;5.97;2.85;;;11.50;90.80;;;;;;5050334;28;20541;-78
2021/05/23 01:23:19;;;;;;;5.07;2.70;;;11.50;90.80;;;;;;5069060;28;20036;-78
2021/05/23 01:25:47;;;;;;;6.68;3.22;;;11.50;90.90;;;;;;5086470;28;20027;-78
2021/05/23 01:28:16;;;;;;;6.32;3.22;;;11.50;90.80;;;;;;5084640;28;20486;-78
2021/05/23 01:30:44;;;;;;;5.68;2.70;;;11.40;90.80;;;;;;5086307;28;20022;-78
2021/05/23 01:33:13;;;;;;;3.88;2.88;;;11.50;90.80;;;;;;5060969;28;20392;-78
2021/05/23 01:35:41;;;;;;;5.85;2.95;;;11.40;90.80;;;;;;5086872;28;20504;-78
2021/05/23 01:38:16;;;;;;;4.18;2.72;;;11.50;90.80;;;;;;5083863;28;20028;-78
2021/05/23 01:40:43;;;;;;;5.97;3.25;;;11.50;90.90;;;;;;5083689;28;20020;-78
2021/05/23 01:43:10;;;;;;;5.00;3.65;;;11.50;90.90;;;;;;5085348;28;20028;-78
2021/05/23 01:45:36;;;;;;;8.48;3.92;;;11.50;90.80;;;;;;5102010;28;20100;-78
2021/05/23 01:48:05;;;;;;;7.88;3.80;;;11.50;90.80;;;;;;5070163;28;20118;-78
2021/05/23 01:50:32;;;;;;;5.60;3.95;;;11.50;90.80;;;;;;5066192;28;20038;-78
2021/05/23 01:53:01;;;;;;;6.85;4.78;;;11.50;90.80;;;;;;5084817;28;20119;-78
2021/05/23 01:55:27;;;;;;;5.40;3.80;;;11.50;90.90;;;;;;5069926;28;20020;-78
2021/05/23 01:57:53;;;;;;;7.32;4.05;;;11.50;90.90;;;;;;5088982;28;20026;-78
2021/05/23 02:00:26;;;;;;;8.20;5.07;;;11.50;90.90;;;;;;5071852;28;20032;-78
2021/05/23 02:02:52;;;;;;;6.43;4.07;;;11.50;90.90;;;;;;5091577;28;20107;-78
2021/05/23 02:05:18;;;;;;;10.18;5.50;;;11.50;90.90;;;;;;5070704;28;20107;-78
2021/05/23 02:07:45;;;;;;;5.93;4.72;;;11.50;90.90;;;;;;5093101;28;20123;-78
2021/05/23 02:10:14;;;;;;;7.82;5.50;;;11.50;90.90;;;;;;5070592;28;20042;-78
2021/05/23 02:12:41;;;;;;;6.68;4.32;;;11.50;91.00;;;;;;5092164;28;20024;-79
2021/05/23 02:15:08;;;;;;;8.95;5.55;;;11.50;91.00;;;;;;5088538;28;20032;-78
2021/05/23 02:17:35;;;;;;;4.90;4.18;;;11.50;91.00;;;;;;5087102;28;20473;-78
2021/05/23 02:20:01;;;;;;;8.38;4.63;;;11.50;91.00;;;;;;5089532;28;20045;-78
2021/05/23 02:22:27;;;;;;;9.35;5.15;;;11.50;91.00;;;;;;5104047;28;20029;-78
2021/05/23 02:24:52;;;;;;;13.50;6.32;;;11.50;91.00;;;;;;5102603;28;20365;-78
2021/05/23 02:27:18;;;;;;;7.72;5.18;;;11.50;91.00;;;;;;5089543;28;20058;-78
2021/05/23 02:29:43;;;;;;;7.30;5.28;;;11.50;91.00;;;;;;5102396;28;20036;-78
2021/05/23 02:32:10;;;;;;;12.68;6.13;;;11.50;91.00;;;;;;5067570;28;20415;-78
2021/05/23 02:34:50;;;;;;;11.25;6.40;;;11.50;91.00;;;;;;5089483;28;20097;-78
2021/05/23 02:37:15;;;;;;;6.20;4.75;;;11.50;91.10;;;;;;5084945;28;20051;-78
2021/05/23 02:39:41;;;;;;;12.68;8.30;;;11.50;91.10;;;;;;5088223;28;20058;-78
2021/05/23 02:42:07;;;;;;;10.00;5.88;;;11.50;91.10;;;;;;5054504;28;20035;-78
2021/05/23 02:44:33;;;;;;;7.30;5.80;;;11.50;91.10;;;;;;5089822;28;20028;-78
2021/05/23 02:46:58;;;;;;;6.10;5.45;;;11.50;91.20;;;;;;5071561;28;20020;-78
2021/05/23 02:49:24;;;;;;;8.48;6.78;;;11.50;91.10;;;;;;5069545;28;20539;-78
2021/05/23 02:51:50;;;;;;;7.03;6.32;;;11.50;91.00;;;;;;5070482;28;20028;-78
2021/05/23 02:54:15;;;;;;;14.00;6.25;;;11.40;91.10;;;;;;5090244;28;20039;-78
2021/05/23 02:56:41;;;;;;;9.85;7.10;;;11.40;91.20;;;;;;5089380;28;20028;-78
2021/05/23 02:59:06;;;;;;;12.25;7.50;;;11.40;91.20;;;;;;5090542;28;20453;-78
2021/05/23 03:01:32;;;;;;;10.52;7.78;;;11.50;91.30;;;;;;5071777;28;20054;-78
2021/05/23 03:03:58;;;;;;;12.60;8.27;;;11.40;91.20;;;;;;5057483;28;20385;-78
2021/05/23 03:06:23;;;;;;;11.88;7.85;;;11.40;91.60;;;;;;5071070;28;20047;-78
2021/05/23 03:08:49;;;;;;;14.15;9.85;;;11.40;91.30;;;;;;5089583;28;20107;-79
2021/05/23 03:11:15;;;;;;;11.27;8.88;;;11.50;91.30;;;;;;5070837;28;20032;-78
2021/05/23 03:13:40;;;;;;;15.60;9.93;;;11.50;91.30;;;;;;5070650;28;20035;-78
2021/05/23 03:16:06;;;;;;;14.85;9.30;;;11.50;91.30;;;;;;5088716;28;20471;-79
2021/05/23 03:18:31;;;;;;;15.35;11.15;;;11.50;91.30;;;;;;5087343;28;20117;-78
2021/05/23 03:20:57;;;;;;;17.20;10.57;;;11.50;91.30;;;;;;5086038;28;20097;-79
2021/05/23 03:23:23;;;;;;;14.23;11.23;;;11.50;91.30;;;;;;5085885;28;20044;-78
2021/05/23 03:25:49;;;;;;;15.13;9.00;;;11.50;91.30;;;;;;5071430;28;20115;-78
2021/05/23 03:28:15;;;;;;;10.52;9.05;;;11.50;91.60;;;;;;5065948;28;20492;-79
2021/05/23 03:30:42;;;;;;;11.18;8.82;;;11.50;91.30;;;;;;5099141;28;20024;-78
2021/05/23 03:33:09;;;;;;;13.52;9.20;;;11.50;91.30;;;;;;5087633;28;20030;-79
2021/05/23 03:35:36;;;;;;;12.40;8.70;;;11.50;91.20;;;;;;5087893;28;21898;-79
2021/05/23 03:38:02;;;;;;;15.55;10.95;;;11.40;91.20;;;;;;5087667;28;20058;-79
2021/05/23 03:40:30;;;;;;;13.85;10.20;;;11.40;91.20;;;;;;5085441;28;20027;-79
2021/05/23 03:42:56;;;;;;;21.13;11.20;;;11.40;91.20;;;;;;5080708;28;20040;-79
2021/05/23 03:45:23;;;;;;;16.65;9.68;;;11.40;91.30;;;;;;5071920;28;20043;-79
2021/05/23 03:47:50;;;;;;;13.88;9.13;;;11.40;91.40;;;;;;5087561;28;20028;-79
2021/05/23 03:50:20;;;;;;;18.27;10.50;;;11.40;91.40;;;;;;5070372;28;20380;-79
2021/05/23 03:52:46;;;;;;;16.58;9.85;;;11.40;91.40;;;;;;5086537;28;20077;-78
2021/05/23 03:55:13;;;;;;;14.30;8.02;;;11.50;91.40;;;;;;5088026;28;20042;-78
2021/05/23 03:57:38;;;;;;;17.08;11.55;;;11.50;91.40;;;;;;5088072;28;20026;-78
2021/05/23 04:00:06;;;;;;;11.50;9.18;;;11.50;91.40;;;;;;5086618;28;20451;-78
2021/05/23 04:02:32;;;;;;;14.23;9.77;;;11.50;91.40;;;;;;5067922;28;20032;-78
2021/05/23 04:04:58;;;;;;;19.42;10.45;;;11.50;91.40;;;;;;5086099;28;20035;-78
2021/05/23 04:07:26;;;;;;;16.27;10.85;;;11.50;91.40;;;;;;5090636;28;20039;-78
2021/05/23 04:09:53;;;;;;;14.63;9.80;;;11.50;91.50;;;;;;5089783;28;20024;-78
2021/05/23 04:12:31;;;;;;;14.20;9.52;;;11.50;91.40;;;;;;5060979;28;20021;-78
2021/05/23 04:14:57;;;;;;;19.15;10.05;;;11.50;91.40;;;;;;5068246;28;20021;-78
2021/05/23 04:17:23;;;;;;;17.00;9.32;;;11.50;91.40;;;;;;5101083;28;20051;-78
2021/05/23 04:19:49;;;;;;;20.50;10.27;;;11.50;91.50;;;;;;5081746;28;20032;-78
2021/05/23 04:22:14;;;;;;;29.90;11.50;;;11.50;91.50;;;;;;5051606;28;20032;-78
2021/05/23 04:24:40;;;;;;;24.55;11.27;;;11.50;91.50;;;;;;5088775;28;20031;-78
2021/05/23 04:27:07;;;;;;;17.10;10.48;;;11.40;91.60;;;;;;5091020;28;20032;-78
2021/05/23 04:29:34;;;;;;;19.02;10.02;;;11.40;91.60;;;;;;5090984;28;20043;-79
2021/05/23 04:32:01;;;;;;;22.17;10.07;;;11.50;91.70;;;;;;5098742;28;20028;-78
2021/05/23 04:34:28;;;;;;;16.88;9.50;;;11.50;91.60;;;;;;5090833;28;20024;-78
2021/05/23 04:36:53;;;;;;;15.05;9.30;;;11.40;91.60;;;;;;5065094;28;20024;-78
2021/05/23 04:39:19;;;;;;;19.92;10.38;;;11.40;91.60;;;;;;5079134;28;20036;-78
2021/05/23 04:41:45;;;;;;;15.60;8.30;;;11.40;91.60;;;;;;5055402;28;20039;-78
2021/05/23 04:44:10;;;;;;;19.08;9.35;;;11.50;91.60;;;;;;5086297;28;20101;-78
2021/05/23 04:46:36;;;;;;;14.68;7.82;;;11.50;91.50;;;;;;5083439;28;20073;-78
2021/05/23 04:49:02;;;;;;;12.77;7.47;;;11.40;91.60;;;;;;5070134;28;20020;-79
2021/05/23 04:51:28;;;;;;;18.30;8.07;;;11.40;91.50;;;;;;5088102;28;20103;-78
2021/05/23 04:53:54;;;;;;;19.13;7.45;;;11.40;91.50;;;;;;5065271;28;20669;-78
2021/05/23 04:56:19;;;;;;;19.90;7.78;;;11.40;91.50;;;;;;5046207;28;20057;-78
2021/05/23 04:58:45;;;;;;;19.63;7.85;;;11.40;91.50;;;;;;5085517;28;20031;-78
2021/05/23 05:01:11;;;;;;;15.48;6.80;;;11.40;91.50;;;;;;5085367;28;21893;-78
2021/05/23 05:03:36;;;;;;;13.60;6.93;;;11.40;91.50;;;;;;5090856;28;20137;-78
2021/05/23 05:06:02;;;;;;;11.85;6.63;;;11.40;91.50;;;;;;5068116;28;20021;-78
2021/05/23 05:08:28;;;;;;;15.10;6.95;;;11.40;91.50;;;;;;5085465;28;20054;-78
2021/05/23 05:10:54;;;;;;;11.52;6.18;;;11.40;91.50;;;;;;5058629;28;20048;-78
2021/05/23 05:13:19;;;;;;;13.05;5.15;;;11.40;91.40;;;;;;5082286;28;20063;-78
2021/05/23 05:15:45;;;;;;;12.68;5.47;;;11.40;91.30;;;;;;5085861;28;20040;-78
2021/05/23 05:18:11;;;;;;;11.85;4.50;;;11.40;91.20;;;;;;5070797;28;20032;-78
2021/05/23 05:20:36;;;;;;;9.73;4.20;;;11.30;91.10;;;;;;5084621;28;20032;-78
2021/05/23 05:23:02;;;;;;;11.15;3.85;;;11.30;90.90;;;;;;5089291;28;20028;-78
2021/05/23 05:25:28;;;;;;;10.40;3.40;;;11.30;90.90;;;;;;5085039;28;20032;-78
2021/05/23 05:27:54;;;;;;;14.02;2.80;;;11.20;90.90;;;;;;5102348;28;20349;-78
2021/05/23 05:30:20;;;;;;;7.78;2.80;;;11.20;90.80;;;;;;5086291;28;20043;-78
2021/05/23 05:32:45;;;;;;;8.32;2.80;;;11.10;90.80;;;;;;5084882;28;20028;-78
2021/05/23 05:35:11;;;;;;;11.82;2.92;;;11.10;90.70;;;;;;5085808;28;20415;-78
2021/05/23 05:37:37;;;;;;;10.15;3.08;;;11.00;91.00;;;;;;5066397;28;20111;-79
2021/05/23 05:40:05;;;;;;;9.88;2.97;;;11.00;90.90;;;;;;5085542;28;20115;-78
2021/05/23 05:42:30;;;;;;;11.05;3.22;;;11.10;90.90;;;;;;5102540;28;20050;-78
2021/05/23 05:44:56;;;;;;;13.77;2.90;;;11.10;91.00;;;;;;5069714;28;20016;-78
2021/05/23 05:47:22;;;;;;;6.10;2.65;;;11.10;90.90;;;;;;5090506;28;20077;-78
2021/05/23 05:49:48;;;;;;;11.68;3.10;;;11.10;91.00;;;;;;5085221;28;20017;-78
2021/05/23 05:52:14;;;;;;;13.77;3.00;;;11.20;91.00;;;;;;5086886;28;20032;-78
2021/05/23 05:54:39;;;;;;;12.10;2.85;;;11.20;91.00;;;;;;5086031;28;20021;-78
2021/05/23 05:57:05;;;;;;;9.32;3.08;;;11.30;91.00;;;;;;5090717;28;20038;-78
2021/05/23 05:59:31;;;;;;;10.40;2.88;;;11.30;90.90;;;;;;5061121;28;20028;-78
2021/05/23 06:01:56;;;;;;;10.93;3.47;;;11.30;90.90;;;;;;5088729;28;20039;-78
2021/05/23 06:04:22;;;;;;;10.40;3.35;;;11.40;90.90;;;;;;5088992;28;20111;-79
2021/05/23 06:06:48;;;;;;;12.68;3.05;;;11.40;90.50;;;;;;5087989;28;20103;-79
2021/05/23 06:09:13;;;;;;;11.07;3.20;;;11.40;90.50;;;;;;5070517;28;20115;-78
2021/05/23 06:11:39;;;;;;;12.23;3.65;;;11.50;90.60;;;;;;5087327;28;20481;-79
2021/05/23 06:14:04;;;;;;;9.30;3.20;;;11.50;90.50;;;;;;5099072;28;20043;-78
2021/05/23 06:16:30;;;;;;;11.07;3.70;;;11.50;90.60;;;;;;5103708;28;20059;-79
2021/05/23 06:18:56;;;;;;;16.77;4.38;;;11.50;90.50;;;;;;5081159;28;20036;-79
2021/05/23 06:21:21;;;;;;;13.50;3.60;;;11.60;90.50;;;;;;5058950;28;20034;-78
2021/05/23 06:23:47;;;;;;;9.82;2.85;;;11.60;90.50;;;;;;5079987;28;20089;-78
2021/05/23 06:26:14;;;;;;;16.60;3.42;;;11.60;90.20;;;;;;5096397;28;20109;-79
2021/05/23 06:28:41;;;;;;;9.52;2.92;;;11.60;90.10;;;;;;5089003;28;20020;-78
2021/05/23 06:31:07;;;;;;;16.60;3.47;;;11.60;90.20;;;;;;5085657;28;20055;-79
2021/05/23 06:33:32;;;;;;;11.10;3.25;;;11.60;90.10;;;;;;5078904;28;20056;-79
2021/05/23 06:35:58;;;;;;;12.25;3.33;;;11.50;89.60;;;;;;5084180;28;20024;-79
2021/05/23 06:38:24;;;;;;;16.52;3.50;;;11.50;89.90;;;;;;5082942;28;20025;-79
2021/05/23 06:40:50;;;;;;;18.40;3.45;;;11.60;90.00;;;;;;5085612;28;20366;-79
2021/05/23 06:43:15;;;;;;;14.27;3.35;;;11.80;89.40;;;;;;5089064;28;20103;-79
2021/05/23 06:45:41;;;;;;;12.25;2.63;;;11.90;89.10;;;;;;5057434;28;20036;-79
2021/05/23 06:48:09;;;;;;;13.15;3.00;;;12.10;86.50;;;;;;5085935;28;20031;-79
2021/05/23 06:50:34;;;;;;;9.55;2.55;;;12.20;87.00;;;;;;5103618;28;20024;-79
2021/05/23 06:53:00;;;;;;;7.68;2.97;;;12.30;87.00;;;;;;5100402;28;20380;-79
2021/05/23 06:55:25;;;;;;;16.45;2.65;;;12.40;86.10;;;;;;5086237;28;20530;-79
2021/05/23 06:57:51;;;;;;;8.50;2.40;;;12.50;85.70;;;;;;5068956;28;20036;-79
2021/05/23 07:00:19;;;;;;;9.90;2.75;;;12.60;84.50;;;;;;5107345;27;20045;-79
2021/05/23 07:02:45;;;;;;;12.82;2.30;;;12.70;84.00;;;;;;5088306;28;20077;-80
2021/05/23 07:05:11;;;;;;;9.27;2.40;;;12.70;83.40;;;;;;5084585;28;20032;-80
2021/05/23 07:07:37;;;;;;;11.90;2.67;;;12.90;83.40;;;;;;5097801;28;20033;-79
2021/05/23 07:10:03;;;;;;;12.65;2.67;;;13.00;83.40;;;;;;5089878;28;20025;-79
2021/05/23 07:12:29;;;;;;;11.43;2.60;;;13.10;83.30;;;;;;5067364;28;20028;-79
2021/05/23 07:14:54;;;;;;;13.82;2.45;;;13.20;82.40;;;;;;5073988;28;20077;-79
2021/05/23 07:17:20;;;;;;;10.40;2.42;;;13.30;81.50;;;;;;5088628;28;20434;-81
2021/05/23 07:19:46;;;;;;;10.23;2.47;;;13.30;81.80;;;;;;5071177;28;20035;-77
2021/05/23 07:22:11;;;;;;;11.95;2.80;;;13.40;81.40;;;;;;5084417;28;20109;-79
2021/05/23 07:24:37;;;;;;;12.25;2.75;;;13.40;80.60;;;;;;5066791;28;20120;-79
2021/05/23 07:27:04;;;;;;;11.90;2.88;;;13.50;80.80;;;;;;5094265;28;20766;-79
2021/05/23 07:29:29;;;;;;;12.15;2.47;;;13.50;80.20;;;;;;5067586;28;20036;-79
2021/05/23 07:31:55;;;;;;;17.08;3.05;;;13.50;81.00;;;;;;5094032;27;20032;-75
2021/05/23 07:34:21;;;;;;;9.18;2.35;;;13.60;79.90;;;;;;5065009;28;20111;-75
2021/05/23 07:36:46;;;;;;;15.20;3.08;;;13.50;78.90;;;;;;5083188;28;20492;-76
2021/05/23 07:39:12;;;;;;;12.98;2.75;;;13.30;78.40;;;;;;5071123;28;20024;-75
2021/05/23 07:41:38;;;;;;;15.45;3.10;;;13.30;80.00;;;;;;5066173;28;20029;-76
2021/05/23 07:44:03;;;;;;;12.93;3.20;;;13.30;80.00;;;;;;5089212;28;20028;-77
2021/05/23 07:46:29;;;;;;;11.40;2.78;;;13.40;80.70;;;;;;5069397;28;20030;-80
2021/05/23 07:48:55;;;;;;;12.27;2.83;;;13.30;79.90;;;;;;5093647;28;20384;-78
2021/05/23 07:51:20;;;;;;;9.35;2.72;;;13.40;80.20;;;;;;5074438;28;20380;-82
2021/05/23 07:53:46;;;;;;;13.80;2.63;;;13.50;79.50;;;;;;5071231;28;20027;-75
2021/05/23 07:56:12;;;;;;;13.57;3.25;;;13.50;78.50;;;;;;5089664;28;20053;-76
2021/05/23 07:58:38;;;;;;;11.95;2.53;;;13.40;77.60;;;;;;5086563;28;20028;-76
2021/05/23 08:01:04;;;;;;;12.32;2.60;;;13.30;76.80;;;;;;5091896;28;20024;-76
2021/05/23 08:03:29;;;;;;;12.40;2.60;;;13.30;77.30;;;;;;5088282;28;20044;-76
2021/05/23 08:05:55;;;;;;;8.88;2.17;;;13.40;77.00;;;;;;5084657;28;20028;-77
2021/05/23 08:08:21;;;;;;;10.48;2.15;;;13.30;76.80;;;;;;5067311;28;20032;-76
2021/05/23 08:10:47;;;;;;;8.77;2.83;;;13.30;76.60;;;;;;5082334;28;20013;-76
2021/05/23 08:13:13;;;;;;;9.40;2.85;;;13.30;76.20;;;;;;5050251;28;20033;-76
2021/05/23 08:15:41;;;;;;;6.50;2.05;;;13.20;76.10;;;;;;5082887;28;20076;-77
2021/05/23 08:18:08;;;;;;;9.25;2.10;;;13.20;76.20;;;;;;5083379;28;20492;-76
2021/05/23 08:20:33;;;;;;;15.00;3.00;;;13.20;76.50;;;;;;5064831;28;20385;-76
2021/05/23 08:22:59;;;;;;;12.05;2.03;;;13.10;76.50;;;;;;5065602;28;20039;-77
2021/05/23 08:25:25;;;;;;;6.85;1.88;;;13.10;75.20;;;;;;5093955;28;20488;-77
2021/05/23 08:27:50;;;;;;;7.43;1.77;;;13.10;75.10;;;;;;5092749;28;20028;-76
2021/05/23 08:30:16;;;;;;;9.80;2.08;;;13.20;75.10;;;;;;5062244;28;20102;-76
2021/05/23 08:32:42;;;;;;;13.20;2.17;;;13.30;72.80;;;;;;5062032;28;20110;-76
2021/05/23 08:35:10;;;;;;;7.80;1.67;;;13.60;73.10;;;;;;5065825;28;20033;-76
2021/05/23 08:37:36;;;;;;;9.40;2.30;;;14.00;71.40;;;;;;5078921;28;20107;-76
2021/05/23 08:40:03;;;;;;;8.65;1.80;;;14.40;69.80;;;;;;5079504;28;20136;-77
2021/05/23 08:42:30;;;;;;;10.63;2.08;;;14.50;69.20;;;;;;5064415;28;20481;-76
2021/05/23 08:44:56;;;;;;;9.48;1.92;;;14.70;69.60;;;;;;5072292;28;20025;-76
2021/05/23 08:47:22;;;;;;;8.48;2.05;;;14.80;68.90;;;;;;5092946;28;20038;-76
2021/05/23 08:49:50;;;;;;;6.07;1.80;;;14.90;67.60;;;;;;5087557;28;20094;-76
2021/05/23 08:52:18;;;;;;;10.13;2.33;;;15.00;66.80;;;;;;5086971;28;20501;-76
2021/05/23 08:54:44;;;;;;;9.70;1.90;;;15.30;65.90;;;;;;5083021;28;20033;-76
2021/05/23 08:57:10;;;;;;;8.52;1.35;;;15.60;65.90;;;;;;5072387;28;20042;-76
2021/05/23 08:59:35;;;;;;;6.00;1.55;;;15.90;63.80;;;;;;5056131;28;20028;-77
2021/05/23 09:02:08;;;;;;;8.38;1.77;;;15.90;62.60;;;;;;5091580;28;20024;-77
2021/05/23 09:04:34;;;;;;;5.13;1.65;;;15.90;62.30;;;;;;5070325;28;20029;-78
2021/05/23 09:07:04;;;;;;;12.52;1.88;;;15.70;60.80;;;;;;5087656;28;20117;-76
2021/05/23 09:09:41;;;;;;;7.28;1.52;;;15.30;62.60;;;;;;5096291;28;20051;-76
2021/05/23 09:12:09;;;;;;;7.47;1.45;;;15.00;62.70;;;;;;5106498;28;20492;-76
2021/05/23 09:14:37;;;;;;;11.23;1.58;;;15.10;62.50;;;;;;5069986;28;20024;-76
2021/05/23 09:17:06;;;;;;;7.32;1.83;;;15.10;62.30;;;;;;5092243;28;20100;-76
2021/05/23 09:19:42;;;;;;;9.82;1.80;;;15.10;62.20;;;;;;5075607;28;20035;-76
2021/05/23 09:22:13;;;;;;;5.80;1.33;;;15.00;61.00;;;;;;5090537;28;20134;-76
2021/05/23 09:24:59;;;;;;;7.88;1.58;;;14.90;62.30;;;;;;5090635;28;20036;-76
2021/05/23 09:27:30;;;;;;;8.40;1.50;;;14.90;61.60;;;;;;5087180;28;20352;-76
2021/05/23 09:30:21;;;;;;;5.80;1.50;;;14.90;62.70;;;;;;5090830;28;20028;-75
2021/05/23 09:32:47;;;;;;;6.43;1.42;;;15.10;63.40;;;;;;5090421;28;20028;-76
2021/05/23 09:35:15;;;;;;;8.77;1.30;;;15.10;63.20;;;;;;5087676;28;20024;-75
2021/05/23 09:37:42;;;;;;;9.03;1.50;;;15.10;63.60;;;;;;5084997;28;20070;-75
2021/05/23 09:40:19;;;;;;;8.88;1.27;;;15.10;63.70;;;;;;5067165;28;20068;-75
2021/05/23 09:42:46;;;;;;;5.75;1.40;;;15.10;63.30;;;;;;5085068;28;20376;-75
2021/05/23 09:45:13;;;;;;;6.53;1.60;;;15.30;62.80;;;;;;5088560;28;20028;-75
2021/05/23 09:47:49;;;;;;;7.78;1.50;;;15.40;61.70;;;;;;5089972;28;20024;-75
2021/05/23 09:50:15;;;;;;;11.77;1.50;;;15.40;61.10;;;;;;5090114;28;20707;-79
2021/05/23 09:52:41;;;;;;;14.43;1.60;;;15.40;62.00;;;;;;5071339;28;20067;-79
2021/05/23 09:55:07;;;;;;;5.32;1.23;;;15.60;60.80;;;;;;5086989;28;20064;-79
2021/05/23 09:57:33;;;;;;;8.73;1.63;;;15.80;60.30;;;;;;5092372;28;20059;-80
2021/05/23 10:00:12;;;;;;;9.57;1.20;;;15.90;59.90;;;;;;5046168;28;20086;-80
2021/05/23 10:02:59;;;;;;;8.10;1.42;;;15.90;58.80;;;;;;5083329;28;20032;-80
2021/05/23 10:05:26;;;;;;;11.27;1.60;;;15.70;60.20;;;;;;5099614;28;20541;-78
2021/05/23 10:07:52;;;;;;;8.85;1.55;;;15.60;60.20;;;;;;5084017;28;20492;-79
2021/05/23 10:10:18;;;;;;;8.73;1.35;;;15.70;59.60;;;;;;5089707;28;20028;-78
2021/05/23 10:12:44;;;;;;;6.18;1.10;;;16.00;58.90;;;;;;5073684;28;20066;-78
2021/05/23 10:15:12;;;;;;;5.28;1.13;;;16.20;57.50;;;;;;5090153;28;20107;-77
2021/05/23 10:17:40;;;;;;;4.67;1.20;;;16.10;57.10;;;;;;5090454;28;20051;-78
2021/05/23 10:20:08;;;;;;;9.40;1.30;;;15.90;57.30;;;;;;5085086;28;20032;-77
2021/05/23 10:22:39;;;;;;;5.28;1.23;;;15.80;58.20;;;;;;5090350;28;20039;-78
2021/05/23 10:25:10;;;;;;;4.07;1.05;;;15.70;58.10;;;;;;5095390;28;20051;-78
2021/05/23 10:27:41;;;;;;;11.77;1.30;;;15.90;56.50;;;;;;5085969;28;20098;-79
2021/05/23 10:30:08;;;;;;;6.28;1.33;;;16.30;54.90;;;;;;5087620;28;20060;-79
2021/05/23 10:32:36;;;;;;;7.45;1.17;;;16.40;54.60;;;;;;5084094;28;20091;-78
2021/05/23 10:35:09;;;;;;;5.90;1.10;;;16.40;53.60;;;;;;5069870;28;20028;-78
2021/05/23 10:37:35;;;;;;;9.15;1.05;;;16.40;54.70;;;;;;5093886;28;20027;-78
2021/05/23 10:40:00;;;;;;;7.55;1.15;;;16.50;54.40;;;;;;5096278;28;20036;-78
2021/05/23 10:42:31;;;;;;;3.92;1.00;;;16.70;54.30;;;;;;5074147;28;20028;-78
2021/05/23 10:44:57;;;;;;;9.13;1.40;;;16.90;54.10;;;;;;5076079;28;20082;-78
2021/05/23 10:47:31;;;;;;;3.55;1.00;;;17.20;53.70;;;;;;5094924;28;20024;-78
2021/05/23 10:50:01;;;;;;;6.78;1.02;;;17.50;53.00;;;;;;5090399;28;20024;-78
2021/05/23 10:52:30;;;;;;;4.90;1.00;;;17.60;52.30;;;;;;5090427;28;20039;-78
2021/05/23 10:55:05;;;;;;;8.95;1.20;;;17.70;52.10;;;;;;5087280;28;20023;-78
2021/05/23 10:57:48;;;;;;;8.57;0.95;;;17.70;53.00;;;;;;5076385;28;20023;-78
2021/05/23 11:00:20;;;;;;;7.25;1.42;;;17.90;51.00;;;;;;5092579;28;20035;-78
2021/05/23 11:02:46;;;;;;;5.00;1.17;;;18.10;52.40;;;;;;5096136;28;20024;-79
2021/05/23 11:05:27;;;;;;;10.68;1.33;;;18.40;52.80;;;;;;5096433;28;20016;-78
2021/05/23 11:07:57;;;;;;;5.97;1.40;;;18.50;51.00;;;;;;5096338;28;20052;-78
2021/05/23 11:10:46;;;;;;;8.55;1.48;;;18.40;51.20;;;;;;5094764;28;20034;-80
2021/05/23 11:13:33;;;;;;;7.43;1.10;;;18.50;50.20;;;;;;5078623;28;20053;-78
2021/05/23 11:16:19;;;;;;;5.05;1.15;;;18.50;50.30;;;;;;5082999;28;20086;-79
2021/05/23 11:18:46;;;;;;;5.88;1.10;;;18.40;50.00;;;;;;5075609;28;20116;-79
2021/05/23 11:21:14;;;;;;;6.95;1.00;;;18.40;50.60;;;;;;5093163;28;20028;-78
2021/05/23 11:23:48;;;;;;;8.35;1.40;;;18.50;50.30;;;;;;5098585;28;20035;-78
2021/05/23 11:26:15;;;;;;;7.45;1.30;;;18.60;49.10;;;;;;5067577;28;20035;-80
2021/05/23 11:28:54;;;;;;;7.22;1.45;;;18.40;49.60;;;;;;5094020;28;20050;-78
2021/05/23 11:31:26;;;;;;;11.73;2.65;;;18.40;49.80;;;;;;5095393;28;20059;-77
2021/05/23 11:33:52;;;;;;;11.25;2.15;;;18.50;50.60;;;;;;5089464;28;20100;-77
2021/05/23 11:36:22;;;;;;;11.57;2.80;;;18.70;50.90;;;;;;5091623;28;20040;-78
2021/05/23 11:38:48;;;;;;;12.88;4.18;;;19.00;51.70;;;;;;5089304;28;20032;-78
2021/05/23 11:41:15;;;;;;;11.13;3.53;;;19.30;52.90;;;;;;5074915;28;20053;-78
2021/05/23 11:43:41;;;;;;;14.77;3.25;;;19.30;51.80;;;;;;5072517;28;20020;-78
2021/05/23 11:46:06;;;;;;;16.58;4.10;;;19.10;51.80;;;;;;5063512;28;20031;-77
2021/05/23 11:48:37;;;;;;;14.68;3.95;;;18.80;53.50;;;;;;5093031;28;20024;-78
2021/05/23 11:51:05;;;;;;;10.73;2.38;;;18.60;53.30;;;;;;5089063;28;20024;-78
2021/05/23 11:53:40;;;;;;;12.65;3.10;;;18.30;53.00;;;;;;5089186;28;20020;-78
2021/05/23 11:56:07;;;;;;;6.10;2.08;;;18.10;54.20;;;;;;5086009;28;20465;-78
2021/05/23 11:58:33;;;;;;;5.82;1.42;;;18.00;53.40;;;;;;5084907;28;20029;-77
2021/05/23 12:01:13;;;;;;;8.20;1.33;;;18.00;52.20;;;;;;5087636;28;20489;-77
2021/05/23 12:03:39;;;;;;;6.22;1.27;;;18.20;51.50;;;;;;5083480;28;20043;-77
2021/05/23 12:06:13;;;;;;;5.72;1.00;;;18.30;50.50;;;;;;5089474;28;20110;-77
2021/05/23 12:08:39;;;;;;;7.85;1.10;;;18.40;49.70;;;;;;5089092;28;20046;-77
2021/05/23 12:11:06;;;;;;;6.63;0.88;;;18.50;50.00;;;;;;5081174;28;20032;-77
2021/05/23 12:13:41;;;;;;;4.95;1.15;;;18.50;49.70;;;;;;5081112;28;20071;-77
2021/05/23 12:16:08;;;;;;;2.97;0.98;;;18.30;51.20;;;;;;5085630;28;20067;-77
2021/05/23 12:18:46;;;;;;;4.20;1.30;;;18.10;51.50;;;;;;5092324;28;20028;-77
2021/05/23 12:21:16;;;;;;;5.10;0.90;;;18.00;53.50;;;;;;5090277;28;20024;-77
2021/05/23 12:23:43;;;;;;;8.55;1.27;;;18.00;52.10;;;;;;5087652;28;20036;-78
2021/05/23 12:26:15;;;;;;;5.50;1.10;;;17.90;50.90;;;;;;5091404;28;20042;-79
2021/05/23 12:28:42;;;;;;;6.30;1.30;;;17.90;51.50;;;;;;5094238;28;20024;-79
2021/05/23 12:31:09;;;;;;;4.68;0.90;;;18.10;50.80;;;;;;5093895;28;20031;-79
2021/05/23 12:44:33;;;;;;;5.13;0.93;;;18.20;49.80;;;;;;5109560;27;20349;-79
2021/05/23 12:47:12;;;;;;;2.95;0.77;;;18.00;50.40;;;;;;5098381;28;20488;-79
2021/05/23 12:49:44;;;;;;;8.60;1.17;;;18.00;51.00;;;;;;5096590;28;20054;-80
2021/05/23 12:52:13;;;;;;;3.17;0.85;;;18.20;51.10;;;;;;5097412;28;20417;-80
2021/05/23 12:54:42;;;;;;;9.73;1.10;;;18.50;50.20;;;;;;5100840;28;20051;-79